sensor_id;sensor_type;location;lat;lon;timestamp;P1;durP1;ratioP1;P2;durP2;ratioP2
8871;SDS011;4472;52.092;9.820;2022-07-29T00:02:41;3.50;;;1.50;;
8871;SDS011;4472;52.092;9.820;2022-07-29T00:05:29;3.13;;;1.70;;
8871;SDS011;4472;52.092;9.820;2022-07-29T00:08:16;2.97;;;1.60;;
8871;SDS011;4472;52.092;9.820;2022-07-29T00:11:03;3.83;;;2.00;;
8871;SDS011;4472;52.092;9.820;2022-07-29T00:13:50;10.70;;;1.93;;
8871;SDS011;4472;52.092;9.820;2022-07-29T00:16:39;7.10;;;1.90;;
8871;SDS011;4472;52.092;9.820;2022-07-29T00:19:26;2.77;;;1.63;;
8871;SDS011;4472;52.092;9.820;2022-07-29T00:22:13;3.60;;;1.60;;
8871;SDS011;4472;52.092;9.820;2022-07-29T00:25:01;3.10;;;1.40;;
8871;SDS011;4472;52.092;9.820;2022-07-29T00:27:48;3.30;;;1.60;;
8871;SDS011;4472;52.092;9.820;2022-07-29T00:30:36;4.83;;;1.50;;
8871;SDS011;4472;52.092;9.820;2022-07-29T00:33:24;5.23;;;1.70;;
8871;SDS011;4472;52.092;9.820;2022-07-29T00:36:12;5.30;;;1.90;;
8871;SDS011;4472;52.092;9.820;2022-07-29T00:38:58;5.23;;;1.70;;
8871;SDS011;4472;52.092;9.820;2022-07-29T00:41:45;3.97;;;1.70;;
8871;SDS011;4472;52.092;9.820;2022-07-29T00:44:35;5.00;;;1.77;;
8871;SDS011;4472;52.092;9.820;2022-07-29T00:47:23;3.23;;;1.50;;
8871;SDS011;4472;52.092;9.820;2022-07-29T00:50:12;5.30;;;1.60;;
8871;SDS011;4472;52.092;9.820;2022-07-29T00:53:00;5.90;;;1.43;;
8871;SDS011;4472;52.092;9.820;2022-07-29T00:55:48;2.37;;;1.67;;
8871;SDS011;4472;52.092;9.820;2022-07-29T00:58:36;4.83;;;2.30;;
8871;SDS011;4472;52.092;9.820;2022-07-29T01:01:23;3.67;;;1.60;;
8871;SDS011;4472;52.092;9.820;2022-07-29T01:04:11;3.03;;;2.03;;
8871;SDS011;4472;52.092;9.820;2022-07-29T01:06:59;4.83;;;1.57;;
8871;SDS011;4472;52.092;9.820;2022-07-29T01:09:49;5.10;;;1.73;;
8871;SDS011;4472;52.092;9.820;2022-07-29T01:12:37;4.93;;;1.70;;
8871;SDS011;4472;52.092;9.820;2022-07-29T01:15:25;6.23;;;1.70;;
8871;SDS011;4472;52.092;9.820;2022-07-29T01:18:16;3.37;;;1.90;;
8871;SDS011;4472;52.092;9.820;2022-07-29T01:21:16;5.40;;;1.50;;
8871;SDS011;4472;52.092;9.820;2022-07-29T01:24:30;3.67;;;1.70;;
8871;SDS011;4472;52.092;9.820;2022-07-29T01:27:32;5.40;;;1.77;;
8871;SDS011;4472;52.092;9.820;2022-07-29T01:30:29;6.30;;;2.07;;
8871;SDS011;4472;52.092;9.820;2022-07-29T01:33:18;4.13;;;1.87;;
8871;SDS011;4472;52.092;9.820;2022-07-29T01:36:43;3.60;;;1.80;;
8871;SDS011;4472;52.092;9.820;2022-07-29T01:39:33;1.77;;;1.60;;
8871;SDS011;4472;52.092;9.820;2022-07-29T01:42:34;4.07;;;1.50;;
8871;SDS011;4472;52.092;9.820;2022-07-29T01:45:26;2.60;;;2.00;;
8871;SDS011;4472;52.092;9.820;2022-07-29T01:48:21;2.47;;;1.67;;
8871;SDS011;4472;52.092;9.820;2022-07-29T01:51:12;5.37;;;1.80;;
8871;SDS011;4472;52.092;9.820;2022-07-29T01:54:04;5.40;;;1.83;;
8871;SDS011;4472;52.092;9.820;2022-07-29T01:56:57;7.17;;;2.00;;
8871;SDS011;4472;52.092;9.820;2022-07-29T01:59:46;4.23;;;1.80;;
8871;SDS011;4472;52.092;9.820;2022-07-29T02:02:37;5.40;;;1.67;;
8871;SDS011;4472;52.092;9.820;2022-07-29T02:05:27;4.53;;;1.63;;
8871;SDS011;4472;52.092;9.820;2022-07-29T02:08:16;2.20;;;1.80;;
8871;SDS011;4472;52.092;9.820;2022-07-29T02:11:06;2.77;;;1.60;;
8871;SDS011;4472;52.092;9.820;2022-07-29T02:13:54;8.63;;;1.87;;
8871;SDS011;4472;52.092;9.820;2022-07-29T02:16:43;3.67;;;1.60;;
8871;SDS011;4472;52.092;9.820;2022-07-29T02:19:35;2.97;;;1.77;;
8871;SDS011;4472;52.092;9.820;2022-07-29T02:22:25;4.23;;;1.80;;
8871;SDS011;4472;52.092;9.820;2022-07-29T02:25:15;4.20;;;1.77;;
8871;SDS011;4472;52.092;9.820;2022-07-29T02:28:04;4.27;;;1.60;;
8871;SDS011;4472;52.092;9.820;2022-07-29T02:30:54;3.03;;;1.60;;
8871;SDS011;4472;52.092;9.820;2022-07-29T02:33:44;6.60;;;1.70;;
8871;SDS011;4472;52.092;9.820;2022-07-29T02:36:35;3.10;;;1.70;;
8871;SDS011;4472;52.092;9.820;2022-07-29T02:39:24;2.90;;;1.67;;
8871;SDS011;4472;52.092;9.820;2022-07-29T02:42:15;4.83;;;2.10;;
8871;SDS011;4472;52.092;9.820;2022-07-29T02:45:04;3.90;;;1.50;;
8871;SDS011;4472;52.092;9.820;2022-07-29T02:47:52;3.67;;;1.70;;
8871;SDS011;4472;52.092;9.820;2022-07-29T02:50:42;4.53;;;1.70;;
8871;SDS011;4472;52.092;9.820;2022-07-29T02:53:36;5.97;;;2.03;;
8871;SDS011;4472;52.092;9.820;2022-07-29T02:56:25;4.27;;;2.00;;
8871;SDS011;4472;52.092;9.820;2022-07-29T02:59:14;5.90;;;2.00;;
8871;SDS011;4472;52.092;9.820;2022-07-29T03:02:06;2.07;;;1.70;;
8871;SDS011;4472;52.092;9.820;2022-07-29T03:04:56;3.33;;;1.73;;
8871;SDS011;4472;52.092;9.820;2022-07-29T03:07:46;3.83;;;1.80;;
8871;SDS011;4472;52.092;9.820;2022-07-29T03:10:38;3.77;;;2.00;;
8871;SDS011;4472;52.092;9.820;2022-07-29T03:13:29;4.13;;;1.83;;
8871;SDS011;4472;52.092;9.820;2022-07-29T03:16:17;4.50;;;2.00;;
8871;SDS011;4472;52.092;9.820;2022-07-29T03:19:05;1.90;;;1.70;;
8871;SDS011;4472;52.092;9.820;2022-07-29T03:21:54;4.87;;;1.60;;
8871;SDS011;4472;52.092;9.820;2022-07-29T03:24:42;5.70;;;1.80;;
8871;SDS011;4472;52.092;9.820;2022-07-29T03:27:31;5.67;;;1.70;;
8871;SDS011;4472;52.092;9.820;2022-07-29T03:30:19;3.83;;;1.80;;
8871;SDS011;4472;52.092;9.820;2022-07-29T03:33:06;3.20;;;1.67;;
8871;SDS011;4472;52.092;9.820;2022-07-29T03:35:53;5.20;;;1.93;;
8871;SDS011;4472;52.092;9.820;2022-07-29T03:38:40;4.77;;;1.43;;
8871;SDS011;4472;52.092;9.820;2022-07-29T03:41:30;2.57;;;1.80;;
8871;SDS011;4472;52.092;9.820;2022-07-29T03:44:21;3.47;;;1.87;;
8871;SDS011;4472;52.092;9.820;2022-07-29T03:47:10;3.67;;;1.70;;
8871;SDS011;4472;52.092;9.820;2022-07-29T03:49:59;3.87;;;1.97;;
8871;SDS011;4472;52.092;9.820;2022-07-29T03:52:51;4.23;;;2.10;;
8871;SDS011;4472;52.092;9.820;2022-07-29T03:55:40;4.03;;;1.80;;
8871;SDS011;4472;52.092;9.820;2022-07-29T03:58:29;2.13;;;1.93;;
8871;SDS011;4472;52.092;9.820;2022-07-29T04:01:19;2.20;;;1.80;;
8871;SDS011;4472;52.092;9.820;2022-07-29T04:04:07;2.90;;;1.80;;
8871;SDS011;4472;52.092;9.820;2022-07-29T04:06:54;4.07;;;1.70;;
8871;SDS011;4472;52.092;9.820;2022-07-29T04:09:41;5.73;;;2.80;;
8871;SDS011;4472;52.092;9.820;2022-07-29T04:12:28;7.97;;;2.83;;
8871;SDS011;4472;52.092;9.820;2022-07-29T04:15:16;3.40;;;1.90;;
8871;SDS011;4472;52.092;9.820;2022-07-29T04:18:04;4.63;;;1.70;;
8871;SDS011;4472;52.092;9.820;2022-07-29T04:20:51;3.83;;;1.50;;
8871;SDS011;4472;52.092;9.820;2022-07-29T04:23:39;2.43;;;1.67;;
8871;SDS011;4472;52.092;9.820;2022-07-29T04:26:26;6.40;;;2.00;;
8871;SDS011;4472;52.092;9.820;2022-07-29T04:29:15;3.67;;;1.80;;
8871;SDS011;4472;52.092;9.820;2022-07-29T04:32:02;3.57;;;1.93;;
8871;SDS011;4472;52.092;9.820;2022-07-29T04:34:51;3.60;;;1.90;;
8871;SDS011;4472;52.092;9.820;2022-07-29T04:37:38;5.07;;;2.10;;
8871;SDS011;4472;52.092;9.820;2022-07-29T04:40:25;4.13;;;1.83;;
8871;SDS011;4472;52.092;9.820;2022-07-29T04:43:13;3.47;;;1.70;;
8871;SDS011;4472;52.092;9.820;2022-07-29T04:46:01;4.47;;;1.80;;
8871;SDS011;4472;52.092;9.820;2022-07-29T04:48:48;2.23;;;1.80;;
8871;SDS011;4472;52.092;9.820;2022-07-29T04:51:37;3.53;;;1.80;;
8871;SDS011;4472;52.092;9.820;2022-07-29T04:54:24;3.33;;;1.83;;
8871;SDS011;4472;52.092;9.820;2022-07-29T04:57:11;4.53;;;1.87;;
8871;SDS011;4472;52.092;9.820;2022-07-29T04:59:58;3.53;;;1.93;;
8871;SDS011;4472;52.092;9.820;2022-07-29T05:02:46;5.27;;;1.80;;
8871;SDS011;4472;52.092;9.820;2022-07-29T05:05:33;3.00;;;2.20;;
8871;SDS011;4472;52.092;9.820;2022-07-29T05:08:22;2.67;;;1.87;;
8871;SDS011;4472;52.092;9.820;2022-07-29T05:11:09;7.40;;;2.20;;
8871;SDS011;4472;52.092;9.820;2022-07-29T05:13:57;4.03;;;1.83;;
8871;SDS011;4472;52.092;9.820;2022-07-29T05:16:44;5.43;;;2.30;;
8871;SDS011;4472;52.092;9.820;2022-07-29T05:19:31;3.70;;;2.30;;
8871;SDS011;4472;52.092;9.820;2022-07-29T05:22:21;3.30;;;2.10;;
8871;SDS011;4472;52.092;9.820;2022-07-29T05:25:10;4.23;;;2.10;;
8871;SDS011;4472;52.092;9.820;2022-07-29T05:27:57;6.20;;;1.87;;
8871;SDS011;4472;52.092;9.820;2022-07-29T05:30:44;3.37;;;1.80;;
8871;SDS011;4472;52.092;9.820;2022-07-29T05:33:31;4.33;;;2.00;;
8871;SDS011;4472;52.092;9.820;2022-07-29T05:36:19;2.30;;;2.03;;
8871;SDS011;4472;52.092;9.820;2022-07-29T05:39:06;4.23;;;1.80;;
8871;SDS011;4472;52.092;9.820;2022-07-29T05:41:55;3.07;;;1.80;;
8871;SDS011;4472;52.092;9.820;2022-07-29T05:44:42;3.13;;;1.70;;
8871;SDS011;4472;52.092;9.820;2022-07-29T05:47:29;2.73;;;1.93;;
8871;SDS011;4472;52.092;9.820;2022-07-29T05:50:16;4.13;;;2.00;;
8871;SDS011;4472;52.092;9.820;2022-07-29T05:53:04;6.33;;;1.90;;
8871;SDS011;4472;52.092;9.820;2022-07-29T05:55:51;2.60;;;1.90;;
8871;SDS011;4472;52.092;9.820;2022-07-29T05:58:39;3.63;;;1.83;;
8871;SDS011;4472;52.092;9.820;2022-07-29T06:01:27;3.20;;;1.93;;
8871;SDS011;4472;52.092;9.820;2022-07-29T06:04:14;3.73;;;2.00;;
8871;SDS011;4472;52.092;9.820;2022-07-29T06:07:01;5.67;;;1.90;;
8871;SDS011;4472;52.092;9.820;2022-07-29T06:09:48;5.63;;;2.10;;
8871;SDS011;4472;52.092;9.820;2022-07-29T06:12:35;4.37;;;2.00;;
8871;SDS011;4472;52.092;9.820;2022-07-29T06:15:24;5.03;;;2.00;;
8871;SDS011;4472;52.092;9.820;2022-07-29T06:18:12;3.03;;;1.80;;
8871;SDS011;4472;52.092;9.820;2022-07-29T06:20:59;4.83;;;1.90;;
8871;SDS011;4472;52.092;9.820;2022-07-29T06:23:46;4.83;;;1.80;;
8871;SDS011;4472;52.092;9.820;2022-07-29T06:26:33;7.03;;;1.80;;
8871;SDS011;4472;52.092;9.820;2022-07-29T06:29:20;2.57;;;1.90;;
8871;SDS011;4472;52.092;9.820;2022-07-29T06:32:09;2.10;;;1.80;;
8871;SDS011;4472;52.092;9.820;2022-07-29T06:34:56;4.37;;;1.60;;
8871;SDS011;4472;52.092;9.820;2022-07-29T06:37:43;3.27;;;1.90;;
8871;SDS011;4472;52.092;9.820;2022-07-29T06:40:30;3.97;;;1.70;;
8871;SDS011;4472;52.092;9.820;2022-07-29T06:43:36;5.63;;;1.73;;
8871;SDS011;4472;52.092;9.820;2022-07-29T06:46:26;5.07;;;2.00;;
8871;SDS011;4472;52.092;9.820;2022-07-29T06:49:15;4.33;;;1.80;;
8871;SDS011;4472;52.092;9.820;2022-07-29T06:52:03;6.77;;;2.00;;
8871;SDS011;4472;52.092;9.820;2022-07-29T06:54:50;4.43;;;1.73;;
8871;SDS011;4472;52.092;9.820;2022-07-29T06:57:37;3.57;;;1.90;;
8871;SDS011;4472;52.092;9.820;2022-07-29T07:00:24;4.80;;;1.90;;
8871;SDS011;4472;52.092;9.820;2022-07-29T07:03:12;6.17;;;1.80;;
8871;SDS011;4472;52.092;9.820;2022-07-29T07:06:00;2.70;;;1.90;;
8871;SDS011;4472;52.092;9.820;2022-07-29T07:08:48;3.73;;;1.67;;
8871;SDS011;4472;52.092;9.820;2022-07-29T07:11:35;4.90;;;2.13;;
8871;SDS011;4472;52.092;9.820;2022-07-29T07:14:22;4.53;;;1.70;;
8871;SDS011;4472;52.092;9.820;2022-07-29T07:17:11;5.20;;;2.00;;
8871;SDS011;4472;52.092;9.820;2022-07-29T07:19:59;2.63;;;1.90;;
8871;SDS011;4472;52.092;9.820;2022-07-29T07:22:47;3.03;;;1.77;;
8871;SDS011;4472;52.092;9.820;2022-07-29T07:25:34;9.27;;;2.40;;
8871;SDS011;4472;52.092;9.820;2022-07-29T07:28:21;4.80;;;1.87;;
8871;SDS011;4472;52.092;9.820;2022-07-29T07:31:09;5.07;;;1.90;;
8871;SDS011;4472;52.092;9.820;2022-07-29T07:33:57;4.33;;;1.80;;
8871;SDS011;4472;52.092;9.820;2022-07-29T07:36:44;7.10;;;2.23;;
8871;SDS011;4472;52.092;9.820;2022-07-29T07:39:32;7.13;;;1.87;;
8871;SDS011;4472;52.092;9.820;2022-07-29T07:42:20;5.23;;;1.90;;
8871;SDS011;4472;52.092;9.820;2022-07-29T07:45:07;5.73;;;2.40;;
8871;SDS011;4472;52.092;9.820;2022-07-29T07:47:55;9.87;;;1.97;;
8871;SDS011;4472;52.092;9.820;2022-07-29T07:50:42;7.00;;;2.60;;
8871;SDS011;4472;52.092;9.820;2022-07-29T07:53:30;3.60;;;1.90;;
8871;SDS011;4472;52.092;9.820;2022-07-29T07:56:18;5.83;;;2.10;;
8871;SDS011;4472;52.092;9.820;2022-07-29T07:59:06;4.37;;;1.90;;
8871;SDS011;4472;52.092;9.820;2022-07-29T08:01:53;3.57;;;2.10;;
8871;SDS011;4472;52.092;9.820;2022-07-29T08:04:40;6.00;;;1.90;;
8871;SDS011;4472;52.092;9.820;2022-07-29T08:07:27;4.63;;;1.83;;
8871;SDS011;4472;52.092;9.820;2022-07-29T08:10:15;3.40;;;2.00;;
8871;SDS011;4472;52.092;9.820;2022-07-29T08:13:26;4.43;;;1.97;;
8871;SDS011;4472;52.092;9.820;2022-07-29T08:16:15;4.20;;;2.10;;
8871;SDS011;4472;52.092;9.820;2022-07-29T08:19:02;5.43;;;2.03;;
8871;SDS011;4472;52.092;9.820;2022-07-29T08:21:49;4.00;;;1.87;;
8871;SDS011;4472;52.092;9.820;2022-07-29T08:24:38;3.83;;;1.70;;
8871;SDS011;4472;52.092;9.820;2022-07-29T08:27:37;7.30;;;2.30;;
8871;SDS011;4472;52.092;9.820;2022-07-29T08:30:26;3.03;;;1.87;;
8871;SDS011;4472;52.092;9.820;2022-07-29T08:33:13;4.70;;;2.10;;
8871;SDS011;4472;52.092;9.820;2022-07-29T08:36:00;4.10;;;1.90;;
8871;SDS011;4472;52.092;9.820;2022-07-29T08:38:47;5.60;;;1.83;;
8871;SDS011;4472;52.092;9.820;2022-07-29T08:41:35;3.67;;;1.50;;
8871;SDS011;4472;52.092;9.820;2022-07-29T08:44:23;3.83;;;2.60;;
8871;SDS011;4472;52.092;9.820;2022-07-29T08:47:14;6.47;;;2.20;;
8871;SDS011;4472;52.092;9.820;2022-07-29T08:50:02;7.23;;;2.07;;
8871;SDS011;4472;52.092;9.820;2022-07-29T08:52:49;5.57;;;2.00;;
8871;SDS011;4472;52.092;9.820;2022-07-29T08:55:38;3.53;;;2.00;;
8871;SDS011;4472;52.092;9.820;2022-07-29T08:58:26;6.90;;;2.30;;
8871;SDS011;4472;52.092;9.820;2022-07-29T09:01:21;4.67;;;2.00;;
8871;SDS011;4472;52.092;9.820;2022-07-29T09:04:11;7.10;;;2.40;;
8871;SDS011;4472;52.092;9.820;2022-07-29T09:07:00;6.00;;;2.10;;
8871;SDS011;4472;52.092;9.820;2022-07-29T09:09:51;6.60;;;1.97;;
8871;SDS011;4472;52.092;9.820;2022-07-29T09:12:38;3.27;;;1.90;;
8871;SDS011;4472;52.092;9.820;2022-07-29T09:15:25;3.10;;;2.17;;
8871;SDS011;4472;52.092;9.820;2022-07-29T09:18:25;4.57;;;2.30;;
8871;SDS011;4472;52.092;9.820;2022-07-29T09:21:21;7.07;;;2.50;;
8871;SDS011;4472;52.092;9.820;2022-07-29T09:24:27;7.83;;;2.87;;
8871;SDS011;4472;52.092;9.820;2022-07-29T09:27:24;5.43;;;2.07;;
8871;SDS011;4472;52.092;9.820;2022-07-29T09:30:14;5.00;;;2.27;;
8871;SDS011;4472;52.092;9.820;2022-07-29T09:33:02;4.30;;;1.93;;
8871;SDS011;4472;52.092;9.820;2022-07-29T09:35:58;3.83;;;2.20;;
8871;SDS011;4472;52.092;9.820;2022-07-29T09:38:48;6.07;;;2.37;;
8871;SDS011;4472;52.092;9.820;2022-07-29T09:41:45;5.40;;;2.40;;
8871;SDS011;4472;52.092;9.820;2022-07-29T09:44:41;5.23;;;2.30;;
8871;SDS011;4472;52.092;9.820;2022-07-29T09:47:40;4.23;;;2.10;;
8871;SDS011;4472;52.092;9.820;2022-07-29T09:50:36;6.90;;;2.50;;
8871;SDS011;4472;52.092;9.820;2022-07-29T09:53:29;3.13;;;1.90;;
8871;SDS011;4472;52.092;9.820;2022-07-29T09:56:20;6.80;;;2.30;;
8871;SDS011;4472;52.092;9.820;2022-07-29T09:59:24;6.57;;;2.40;;
8871;SDS011;4472;52.092;9.820;2022-07-29T10:02:12;9.00;;;2.60;;
8871;SDS011;4472;52.092;9.820;2022-07-29T10:05:00;6.60;;;2.60;;
8871;SDS011;4472;52.092;9.820;2022-07-29T10:07:48;7.17;;;2.10;;
8871;SDS011;4472;52.092;9.820;2022-07-29T10:10:37;7.17;;;2.40;;
8871;SDS011;4472;52.092;9.820;2022-07-29T10:13:26;7.07;;;2.47;;
8871;SDS011;4472;52.092;9.820;2022-07-29T10:16:14;5.90;;;2.43;;
8871;SDS011;4472;52.092;9.820;2022-07-29T10:19:02;4.80;;;2.00;;
8871;SDS011;4472;52.092;9.820;2022-07-29T10:21:49;4.93;;;2.50;;
8871;SDS011;4472;52.092;9.820;2022-07-29T10:24:37;8.27;;;2.80;;
8871;SDS011;4472;52.092;9.820;2022-07-29T10:27:25;4.57;;;2.23;;
8871;SDS011;4472;52.092;9.820;2022-07-29T10:30:14;5.57;;;2.93;;
8871;SDS011;4472;52.092;9.820;2022-07-29T10:33:08;8.13;;;2.50;;
8871;SDS011;4472;52.092;9.820;2022-07-29T10:36:15;7.17;;;2.40;;
8871;SDS011;4472;52.092;9.820;2022-07-29T10:39:17;5.40;;;2.70;;
8871;SDS011;4472;52.092;9.820;2022-07-29T10:42:15;8.00;;;2.80;;
8871;SDS011;4472;52.092;9.820;2022-07-29T10:45:06;5.47;;;2.80;;
8871;SDS011;4472;52.092;9.820;2022-07-29T10:48:03;6.77;;;3.10;;
8871;SDS011;4472;52.092;9.820;2022-07-29T10:50:52;10.37;;;3.00;;
8871;SDS011;4472;52.092;9.820;2022-07-29T10:53:47;7.80;;;3.10;;
8871;SDS011;4472;52.092;9.820;2022-07-29T10:56:35;7.27;;;3.00;;
8871;SDS011;4472;52.092;9.820;2022-07-29T10:59:22;5.93;;;2.70;;
8871;SDS011;4472;52.092;9.820;2022-07-29T11:05:53;7.87;;;3.10;;
8871;SDS011;4472;52.092;9.820;2022-07-29T11:08:41;7.03;;;2.83;;
8871;SDS011;4472;52.092;9.820;2022-07-29T11:11:31;6.70;;;2.97;;
8871;SDS011;4472;52.092;9.820;2022-07-29T11:14:22;5.93;;;2.77;;
8871;SDS011;4472;52.092;9.820;2022-07-29T11:20:50;5.70;;;3.00;;
8871;SDS011;4472;52.092;9.820;2022-07-29T11:23:41;4.30;;;2.50;;
8871;SDS011;4472;52.092;9.820;2022-07-29T11:26:28;5.83;;;3.07;;
8871;SDS011;4472;52.092;9.820;2022-07-29T11:29:17;7.07;;;2.70;;
8871;SDS011;4472;52.092;9.820;2022-07-29T11:32:08;6.93;;;2.90;;
8871;SDS011;4472;52.092;9.820;2022-07-29T11:38:24;6.57;;;2.73;;
8871;SDS011;4472;52.092;9.820;2022-07-29T11:41:23;5.47;;;2.80;;
8871;SDS011;4472;52.092;9.820;2022-07-29T11:44:12;7.00;;;2.63;;
8871;SDS011;4472;52.092;9.820;2022-07-29T11:47:00;4.03;;;2.63;;
8871;SDS011;4472;52.092;9.820;2022-07-29T11:49:49;5.53;;;2.83;;
8871;SDS011;4472;52.092;9.820;2022-07-29T11:52:38;4.67;;;2.80;;
8871;SDS011;4472;52.092;9.820;2022-07-29T11:55:30;4.17;;;2.70;;
8871;SDS011;4472;52.092;9.820;2022-07-29T11:58:22;4.10;;;2.33;;
8871;SDS011;4472;52.092;9.820;2022-07-29T12:01:12;5.93;;;2.63;;
8871;SDS011;4472;52.092;9.820;2022-07-29T12:04:03;4.37;;;2.47;;
8871;SDS011;4472;52.092;9.820;2022-07-29T12:06:52;4.50;;;2.60;;
8871;SDS011;4472;52.092;9.820;2022-07-29T12:09:40;5.10;;;2.57;;
8871;SDS011;4472;52.092;9.820;2022-07-29T12:12:36;6.53;;;3.27;;
8871;SDS011;4472;52.092;9.820;2022-07-29T12:15:25;3.87;;;2.83;;
8871;SDS011;4472;52.092;9.820;2022-07-29T12:18:16;7.33;;;2.77;;
8871;SDS011;4472;52.092;9.820;2022-07-29T12:21:05;10.33;;;2.90;;
8871;SDS011;4472;52.092;9.820;2022-07-29T12:23:53;3.60;;;2.60;;
8871;SDS011;4472;52.092;9.820;2022-07-29T12:26:51;4.77;;;2.80;;
8871;SDS011;4472;52.092;9.820;2022-07-29T12:29:39;7.27;;;2.87;;
8871;SDS011;4472;52.092;9.820;2022-07-29T12:32:32;7.97;;;2.70;;
8871;SDS011;4472;52.092;9.820;2022-07-29T12:35:20;6.30;;;2.70;;
8871;SDS011;4472;52.092;9.820;2022-07-29T12:38:09;6.10;;;2.90;;
8871;SDS011;4472;52.092;9.820;2022-07-29T12:40:56;5.23;;;2.97;;
8871;SDS011;4472;52.092;9.820;2022-07-29T12:43:53;6.47;;;2.80;;
8871;SDS011;4472;52.092;9.820;2022-07-29T12:46:41;8.80;;;3.20;;
8871;SDS011;4472;52.092;9.820;2022-07-29T12:49:33;5.73;;;2.63;;
8871;SDS011;4472;52.092;9.820;2022-07-29T12:52:23;9.93;;;2.90;;
8871;SDS011;4472;52.092;9.820;2022-07-29T12:55:11;4.90;;;2.70;;
8871;SDS011;4472;52.092;9.820;2022-07-29T12:57:58;7.40;;;2.43;;
8871;SDS011;4472;52.092;9.820;2022-07-29T13:00:46;5.17;;;2.83;;
8871;SDS011;4472;52.092;9.820;2022-07-29T13:03:43;10.50;;;3.10;;
8871;SDS011;4472;52.092;9.820;2022-07-29T13:06:37;10.13;;;2.80;;
8871;SDS011;4472;52.092;9.820;2022-07-29T13:09:35;8.97;;;3.17;;
8871;SDS011;4472;52.092;9.820;2022-07-29T13:12:23;5.77;;;2.80;;
8871;SDS011;4472;52.092;9.820;2022-07-29T13:15:14;12.00;;;3.10;;
8871;SDS011;4472;52.092;9.820;2022-07-29T13:18:02;9.73;;;2.60;;
8871;SDS011;4472;52.092;9.820;2022-07-29T13:20:50;5.40;;;2.70;;
8871;SDS011;4472;52.092;9.820;2022-07-29T13:23:38;15.93;;;3.10;;
8871;SDS011;4472;52.092;9.820;2022-07-29T13:26:26;4.53;;;2.73;;
8871;SDS011;4472;52.092;9.820;2022-07-29T13:29:13;6.50;;;3.20;;
8871;SDS011;4472;52.092;9.820;2022-07-29T13:32:00;8.97;;;3.30;;
8871;SDS011;4472;52.092;9.820;2022-07-29T13:34:47;7.33;;;3.10;;
8871;SDS011;4472;52.092;9.820;2022-07-29T13:37:35;6.93;;;2.75;;
8871;SDS011;4472;52.092;9.820;2022-07-29T13:40:25;6.60;;;3.42;;
8871;SDS011;4472;52.092;9.820;2022-07-29T13:43:14;10.27;;;2.80;;
8871;SDS011;4472;52.092;9.820;2022-07-29T13:46:01;8.02;;;3.20;;
8871;SDS011;4472;52.092;9.820;2022-07-29T13:48:48;9.07;;;3.40;;
8871;SDS011;4472;52.092;9.820;2022-07-29T13:51:37;7.77;;;3.13;;
8871;SDS011;4472;52.092;9.820;2022-07-29T13:54:25;6.07;;;3.28;;
8871;SDS011;4472;52.092;9.820;2022-07-29T13:57:13;7.30;;;3.37;;
8871;SDS011;4472;52.092;9.820;2022-07-29T14:00:01;3.83;;;2.90;;
8871;SDS011;4472;52.092;9.820;2022-07-29T14:02:48;7.20;;;3.20;;
8871;SDS011;4472;52.092;9.820;2022-07-29T14:05:36;8.50;;;3.90;;
8871;SDS011;4472;52.092;9.820;2022-07-29T14:08:23;5.57;;;2.87;;
8871;SDS011;4472;52.092;9.820;2022-07-29T14:11:11;10.07;;;3.90;;
8871;SDS011;4472;52.092;9.820;2022-07-29T14:13:59;5.90;;;3.80;;
8871;SDS011;4472;52.092;9.820;2022-07-29T14:16:46;7.23;;;3.47;;
8871;SDS011;4472;52.092;9.820;2022-07-29T14:19:34;6.20;;;3.43;;
8871;SDS011;4472;52.092;9.820;2022-07-29T14:22:23;9.73;;;3.70;;
8871;SDS011;4472;52.092;9.820;2022-07-29T14:25:10;5.53;;;3.30;;
8871;SDS011;4472;52.092;9.820;2022-07-29T14:27:57;5.43;;;3.00;;
8871;SDS011;4472;52.092;9.820;2022-07-29T14:30:46;5.83;;;2.60;;
8871;SDS011;4472;52.092;9.820;2022-07-29T14:33:33;4.87;;;3.23;;
8871;SDS011;4472;52.092;9.820;2022-07-29T14:36:20;3.13;;;2.80;;
8871;SDS011;4472;52.092;9.820;2022-07-29T14:39:08;5.43;;;3.23;;
8871;SDS011;4472;52.092;9.820;2022-07-29T14:41:55;7.37;;;3.47;;
8871;SDS011;4472;52.092;9.820;2022-07-29T14:44:42;4.27;;;2.43;;
8871;SDS011;4472;52.092;9.820;2022-07-29T14:47:31;6.93;;;3.13;;
8871;SDS011;4472;52.092;9.820;2022-07-29T14:50:18;12.33;;;3.43;;
8871;SDS011;4472;52.092;9.820;2022-07-29T14:53:05;7.23;;;3.17;;
8871;SDS011;4472;52.092;9.820;2022-07-29T14:55:53;9.73;;;3.17;;
8871;SDS011;4472;52.092;9.820;2022-07-29T14:58:40;4.40;;;2.80;;
8871;SDS011;4472;52.092;9.820;2022-07-29T15:01:27;5.50;;;3.40;;
8871;SDS011;4472;52.092;9.820;2022-07-29T15:04:16;5.13;;;3.17;;
8871;SDS011;4472;52.092;9.820;2022-07-29T15:07:03;8.30;;;3.10;;
8871;SDS011;4472;52.092;9.820;2022-07-29T15:09:50;6.10;;;3.30;;
8871;SDS011;4472;52.092;9.820;2022-07-29T15:12:37;6.82;;;3.17;;
8871;SDS011;4472;52.092;9.820;2022-07-29T15:15:25;4.15;;;3.10;;
8871;SDS011;4472;52.092;9.820;2022-07-29T15:18:12;8.07;;;3.78;;
8871;SDS011;4472;52.092;9.820;2022-07-29T15:21:01;6.93;;;2.85;;
8871;SDS011;4472;52.092;9.820;2022-07-29T15:23:48;6.88;;;3.20;;
8871;SDS011;4472;52.092;9.820;2022-07-29T15:26:36;6.13;;;3.50;;
8871;SDS011;4472;52.092;9.820;2022-07-29T15:29:24;7.45;;;3.10;;
8871;SDS011;4472;52.092;9.820;2022-07-29T15:32:11;5.13;;;3.30;;
8871;SDS011;4472;52.092;9.820;2022-07-29T15:34:59;8.63;;;3.27;;
8871;SDS011;4472;52.092;9.820;2022-07-29T15:37:47;5.97;;;3.80;;
8871;SDS011;4472;52.092;9.820;2022-07-29T15:40:36;7.23;;;3.37;;
8871;SDS011;4472;52.092;9.820;2022-07-29T15:43:23;5.38;;;3.20;;
8871;SDS011;4472;52.092;9.820;2022-07-29T15:46:12;11.50;;;3.60;;
8871;SDS011;4472;52.092;9.820;2022-07-29T15:49:18;7.28;;;3.63;;
8871;SDS011;4472;52.092;9.820;2022-07-29T15:52:05;5.10;;;3.20;;
8871;SDS011;4472;52.092;9.820;2022-07-29T15:54:55;7.63;;;3.23;;
8871;SDS011;4472;52.092;9.820;2022-07-29T15:57:42;8.20;;;3.33;;
8871;SDS011;4472;52.092;9.820;2022-07-29T16:00:30;4.53;;;3.30;;
8871;SDS011;4472;52.092;9.820;2022-07-29T16:03:18;5.03;;;3.03;;
8871;SDS011;4472;52.092;9.820;2022-07-29T16:06:07;5.88;;;3.67;;
8871;SDS011;4472;52.092;9.820;2022-07-29T16:08:54;5.97;;;3.22;;
8871;SDS011;4472;52.092;9.820;2022-07-29T16:11:44;7.70;;;3.63;;
8871;SDS011;4472;52.092;9.820;2022-07-29T16:14:35;5.90;;;3.83;;
8871;SDS011;4472;52.092;9.820;2022-07-29T16:17:22;4.55;;;3.30;;
8871;SDS011;4472;52.092;9.820;2022-07-29T16:20:09;7.83;;;3.80;;
8871;SDS011;4472;52.092;9.820;2022-07-29T16:22:57;5.70;;;3.45;;
8871;SDS011;4472;52.092;9.820;2022-07-29T16:25:44;5.13;;;3.30;;
8871;SDS011;4472;52.092;9.820;2022-07-29T16:28:33;4.40;;;3.47;;
8871;SDS011;4472;52.092;9.820;2022-07-29T16:31:20;9.70;;;3.93;;
8871;SDS011;4472;52.092;9.820;2022-07-29T16:34:07;5.67;;;3.40;;
8871;SDS011;4472;52.092;9.820;2022-07-29T16:36:54;5.38;;;3.35;;
8871;SDS011;4472;52.092;9.820;2022-07-29T16:39:41;8.47;;;3.57;;
8871;SDS011;4472;52.092;9.820;2022-07-29T16:42:29;6.97;;;3.10;;
8871;SDS011;4472;52.092;9.820;2022-07-29T16:45:17;5.80;;;3.40;;
8871;SDS011;4472;52.092;9.820;2022-07-29T16:48:04;4.00;;;3.10;;
8871;SDS011;4472;52.092;9.820;2022-07-29T16:50:52;8.07;;;3.40;;
8871;SDS011;4472;52.092;9.820;2022-07-29T16:53:39;11.00;;;3.27;;
8871;SDS011;4472;52.092;9.820;2022-07-29T16:56:26;5.73;;;3.40;;
8871;SDS011;4472;52.092;9.820;2022-07-29T16:59:13;7.67;;;3.20;;
8871;SDS011;4472;52.092;9.820;2022-07-29T17:02:02;4.17;;;3.33;;
8871;SDS011;4472;52.092;9.820;2022-07-29T17:04:49;6.67;;;3.10;;
8871;SDS011;4472;52.092;9.820;2022-07-29T17:07:36;6.50;;;2.67;;
8871;SDS011;4472;52.092;9.820;2022-07-29T17:10:23;5.10;;;3.30;;
8871;SDS011;4472;52.092;9.820;2022-07-29T17:13:14;5.17;;;3.30;;
8871;SDS011;4472;52.092;9.820;2022-07-29T17:16:01;4.00;;;3.00;;
8871;SDS011;4472;52.092;9.820;2022-07-29T17:18:49;8.43;;;2.90;;
8871;SDS011;4472;52.092;9.820;2022-07-29T17:21:37;5.47;;;3.40;;
8871;SDS011;4472;52.092;9.820;2022-07-29T17:24:24;4.33;;;2.83;;
8871;SDS011;4472;52.092;9.820;2022-07-29T17:27:11;3.43;;;2.70;;
8871;SDS011;4472;52.092;9.820;2022-07-29T17:29:59;3.83;;;2.90;;
8871;SDS011;4472;52.092;9.820;2022-07-29T17:32:46;4.40;;;2.67;;
8871;SDS011;4472;52.092;9.820;2022-07-29T17:35:35;5.43;;;2.80;;
8871;SDS011;4472;52.092;9.820;2022-07-29T17:38:39;10.10;;;3.00;;
8871;SDS011;4472;52.092;9.820;2022-07-29T17:41:26;7.00;;;2.97;;
8871;SDS011;4472;52.092;9.820;2022-07-29T17:44:14;4.57;;;2.90;;